Terminal Aerodrome Forecast
Issued by NWS

Home | Current Version | Previous Version | Text Only | Print | Product List | Glossary On
Versions: 1 2 3 4 5 6 7 8 9 10 11 12
000
FTPA31 PHFO 182336
TAFHKO
TAF
PHKO 182336Z 1900/1924 19011KT P6SM BKN060
     FM190500 18007KT P6SM VCSH SCT030 BKN050
     FM190800 07006KT P6SM FEW030 SCT050
     FM192000 21011KT P6SM SCT060=

USA.gov is the U.S. government's official web portal to all federal, state and local government web resources and services.